Time;durP1;ratioP1;P1;durP2;ratioP2;P2;SDS_P1;SDS_P2;PMS_P1;PMS_P2;Temp;Humidity;BMP_temperature;BMP_pressure;BME280_temperature;BME280_humidity;BME280_pressure;Samples;Min_cycle;Max_cycle;Signal;HPM_P1;HPM_P2
2022/01/22 00:00:15;;;;;;;11.23;5.77;;;;;;;;;;5017160;28;20451;-72
2022/01/22 00:02:42;;;;;;;8.90;4.67;;;;;;;;;;5016939;28;20466;-72
2022/01/22 00:05:11;;;;;;;11.70;5.30;;;;;;;;;;5017017;28;20541;-72
2022/01/22 00:07:38;;;;;;;9.60;5.27;;;;;;;;;;5016803;28;20463;-72
2022/01/22 00:10:11;;;;;;;6.37;3.93;;;;;;;;;;5016367;28;20479;-72
2022/01/22 00:12:55;;;;;;;6.90;3.20;;;;;;;;;;5016039;28;20494;-72
2022/01/22 00:15:25;;;;;;;9.60;6.20;;;;;;;;;;5017390;28;20891;-72
2022/01/22 00:17:54;;;;;;;7.47;4.70;;;;;;;;;;5017588;28;20494;-72
2022/01/22 00:20:26;;;;;;;5.70;3.43;;;;;;;;;;5016665;28;20470;-72
2022/01/22 00:22:57;;;;;;;8.73;5.37;;;;;;;;;;5016843;28;20452;-73
2022/01/22 00:25:24;;;;;;;10.00;5.90;;;;;;;;;;5016357;28;20546;-72
2022/01/22 00:27:52;;;;;;;10.23;4.87;;;;;;;;;;5016574;28;20918;-73
2022/01/22 00:30:21;;;;;;;9.23;4.20;;;;;;;;;;5016143;28;20465;-72
2022/01/22 00:32:54;;;;;;;9.43;4.30;;;;;;;;;;5016556;28;20545;-73
2022/01/22 00:35:22;;;;;;;7.30;5.40;;;;;;;;;;5017209;28;20447;-71
2022/01/22 00:37:51;;;;;;;8.17;5.40;;;;;;;;;;5016493;28;20550;-73
2022/01/22 00:40:19;;;;;;;10.13;6.20;;;;;;;;;;4996987;28;20456;-73
2022/01/22 00:42:47;;;;;;;10.80;6.40;;;;;;;;;;4996442;28;20736;-72
2022/01/22 00:45:15;;;;;;;14.10;5.70;;;;;;;;;;4996396;28;20773;-73
2022/01/22 00:47:43;;;;;;;11.37;5.30;;;;;;;;;;4996388;28;20825;-73
2022/01/22 00:50:15;;;;;;;11.67;5.17;;;;;;;;;;4997818;28;20868;-71
2022/01/22 00:52:43;;;;;;;12.83;8.60;;;;;;;;;;4997930;28;20455;-73
2022/01/22 00:55:12;;;;;;;9.50;5.77;;;;;;;;;;5000509;28;20522;-73
2022/01/22 00:57:39;;;;;;;11.03;4.77;;;;;;;;;;4999755;28;20459;-73
2022/01/22 01:00:11;;;;;;;5.70;3.10;;;;;;;;;;5000828;28;20794;-72
2022/01/22 01:02:39;;;;;;;9.67;4.40;;;;;;;;;;5016332;28;20463;-72
2022/01/22 01:05:08;;;;;;;2.40;1.53;;;;;;;;;;5020525;28;20463;-72
2022/01/22 01:07:37;;;;;;;7.93;3.03;;;;;;;;;;5019782;28;20872;-72
2022/01/22 01:10:05;;;;;;;5.50;3.07;;;;;;;;;;5019821;28;20891;-72
2022/01/22 01:12:36;;;;;;;9.60;3.77;;;;;;;;;;5020420;28;20461;-72
2022/01/22 01:15:18;;;;;;;6.67;3.10;;;;;;;;;;5019018;28;20454;-73
2022/01/22 01:18:04;;;;;;;6.17;3.13;;;;;;;;;;5019378;28;20455;-72
2022/01/22 01:34:18;;;;;;;7.83;4.23;;;;;;;;;;5019895;28;20470;-72
2022/01/22 01:36:49;;;;;;;10.30;5.00;;;;;;;;;;5019874;28;20761;-73
2022/01/22 01:39:24;;;;;;;9.37;5.33;;;;;;;;;;5016232;28;20541;-72
2022/01/22 01:41:59;;;;;;;7.63;4.23;;;;;;;;;;5004124;28;20455;-73
2022/01/22 01:44:29;;;;;;;10.13;5.10;;;;;;;;;;5000543;28;20455;-72
2022/01/22 01:46:58;;;;;;;6.70;4.30;;;;;;;;;;5001526;28;20541;-72
2022/01/22 01:49:26;;;;;;;7.33;4.60;;;;;;;;;;5000374;28;20887;-72
2022/01/22 01:51:57;;;;;;;8.17;4.00;;;;;;;;;;5000815;28;20539;-72
2022/01/22 01:55:01;;;;;;;7.20;4.37;;;;;;;;;;5000692;28;20492;-72
2022/01/22 02:00:16;;;;;;;7.40;3.70;;;;;;;;;;4998916;28;20549;-72
2022/01/22 02:02:45;;;;;;;5.47;2.80;;;;;;;;;;5000711;28;20456;-72
2022/01/22 02:05:13;;;;;;;7.60;2.90;;;;;;;;;;5018789;28;20526;-72
2022/01/22 02:07:42;;;;;;;4.50;2.57;;;;;;;;;;5018979;28;20455;-72
2022/01/22 02:10:18;;;;;;;6.70;2.93;;;;;;;;;;5019329;28;20481;-72
2022/01/22 02:23:53;;;;;;;7.70;4.87;;;;;;;;;;4999337;28;20478;-73
2022/01/22 02:26:20;;;;;;;11.87;6.10;;;;;;;;;;5003381;28;20447;-73
2022/01/22 02:28:51;;;;;;;17.93;6.43;;;;;;;;;;5019442;28;20501;-72
2022/01/22 02:31:26;;;;;;;8.77;5.70;;;;;;;;;;5019274;28;20528;-72
2022/01/22 02:34:00;;;;;;;11.20;5.87;;;;;;;;;;5018749;28;20510;-72
2022/01/22 02:36:34;;;;;;;15.77;6.60;;;;;;;;;;5018785;28;20498;-72
2022/01/22 02:39:08;;;;;;;10.63;5.70;;;;;;;;;;5019365;28;20458;-72
2022/01/22 02:41:38;;;;;;;8.63;4.03;;;;;;;;;;5018874;28;20462;-72
2022/01/22 02:44:07;;;;;;;12.30;6.23;;;;;;;;;;5019290;28;20790;-72
2022/01/22 02:46:38;;;;;;;8.37;4.50;;;;;;;;;;5019122;28;20459;-72
2022/01/22 02:49:05;;;;;;;11.13;6.47;;;;;;;;;;5018685;28;20459;-72
2022/01/22 02:51:34;;;;;;;13.70;6.97;;;;;;;;;;5018961;28;20455;-72
2022/01/22 02:54:02;;;;;;;11.97;5.70;;;;;;;;;;5018991;28;20487;-72
2022/01/22 02:56:30;;;;;;;7.53;5.13;;;;;;;;;;5018551;28;20730;-72
2022/01/22 02:58:59;;;;;;;11.07;6.60;;;;;;;;;;5018513;28;20454;-71
2022/01/22 03:01:26;;;;;;;10.73;5.60;;;;;;;;;;5018731;28;20444;-73
2022/01/22 03:03:58;;;;;;;12.13;5.53;;;;;;;;;;5018718;28;20451;-72
2022/01/22 03:06:25;;;;;;;10.50;5.70;;;;;;;;;;5018728;28;20455;-72
2022/01/22 03:08:54;;;;;;;13.73;7.20;;;;;;;;;;5014977;28;20525;-72
2022/01/22 03:11:25;;;;;;;13.53;7.73;;;;;;;;;;4998795;28;20924;-72
2022/01/22 03:16:57;;;;;;;11.23;6.57;;;;;;;;;;5016172;28;20435;-72
2022/01/22 03:19:57;;;;;;;15.53;7.10;;;;;;;;;;5018280;28;20545;-72
2022/01/22 03:22:30;;;;;;;15.47;7.53;;;;;;;;;;5018628;28;20458;-72
2022/01/22 03:27:45;;;;;;;13.87;6.40;;;;;;;;;;5018395;28;20516;-72
2022/01/22 03:30:12;;;;;;;11.20;5.53;;;;;;;;;;5018608;28;20517;-72
2022/01/22 03:32:43;;;;;;;20.60;7.53;;;;;;;;;;5018378;28;20462;-72
2022/01/22 03:35:23;;;;;;;15.00;8.50;;;;;;;;;;5018625;28;20491;-72
2022/01/22 03:37:52;;;;;;;10.20;5.50;;;;;;;;;;5018733;28;20466;-72
2022/01/22 03:40:23;;;;;;;13.00;7.07;;;;;;;;;;5019090;28;20447;-73
2022/01/22 03:42:51;;;;;;;15.27;8.10;;;;;;;;;;5018264;28;20459;-72
2022/01/22 03:45:19;;;;;;;11.50;7.13;;;;;;;;;;5017920;28;20482;-72
2022/01/22 03:47:47;;;;;;;12.37;6.90;;;;;;;;;;5017222;28;20526;-72
2022/01/22 03:50:16;;;;;;;15.30;6.43;;;;;;;;;;5017906;28;20466;-72
2022/01/22 03:52:43;;;;;;;15.63;6.63;;;;;;;;;;5017916;28;20473;-72
2022/01/22 03:55:22;;;;;;;14.80;6.63;;;;;;;;;;5018099;28;20827;-72
2022/01/22 03:57:51;;;;;;;15.50;7.67;;;;;;;;;;5018608;28;20457;-72
2022/01/22 04:00:19;;;;;;;14.20;7.50;;;;;;;;;;5018545;28;20462;-72
2022/01/22 04:05:33;;;;;;;13.63;6.70;;;;;;;;;;5018624;28;20436;-72
2022/01/22 04:08:12;;;;;;;16.90;7.47;;;;;;;;;;5018872;28;20447;-72
2022/01/22 04:10:40;;;;;;;16.47;7.20;;;;;;;;;;5019370;28;20534;-72
2022/01/22 04:13:10;;;;;;;13.60;6.63;;;;;;;;;;5018973;28;20543;-71
2022/01/22 04:15:39;;;;;;;12.90;7.50;;;;;;;;;;5017887;28;20939;-72
2022/01/22 04:26:32;;;;;;;17.50;8.77;;;;;;;;;;5016869;28;20435;-73
2022/01/22 04:29:02;;;;;;;11.87;7.23;;;;;;;;;;5017151;28;20747;-72
2022/01/22 04:31:30;;;;;;;17.67;7.60;;;;;;;;;;5017723;28;20458;-73
2022/01/22 04:33:59;;;;;;;19.43;10.10;;;;;;;;;;5017329;28;20861;-72
2022/01/22 04:36:26;;;;;;;22.07;9.10;;;;;;;;;;5017658;28;20474;-73
2022/01/22 04:38:54;;;;;;;16.60;9.67;;;;;;;;;;5017123;28;20447;-72
2022/01/22 04:41:23;;;;;;;26.60;11.53;;;;;;;;;;5016401;28;20713;-72
2022/01/22 04:43:57;;;;;;;21.60;9.80;;;;;;;;;;5016918;28;20505;-73
2022/01/22 04:46:38;;;;;;;17.30;8.53;;;;;;;;;;5016915;28;20467;-72
2022/01/22 04:49:11;;;;;;;18.63;9.87;;;;;;;;;;5016272;28;20805;-72
2022/01/22 04:57:08;;;;;;;17.27;9.37;;;;;;;;;;5015738;28;20461;-72
2022/01/22 04:59:36;;;;;;;20.27;9.43;;;;;;;;;;5016134;28;20528;-72
2022/01/22 05:02:05;;;;;;;22.60;10.03;;;;;;;;;;5016379;28;20859;-71
2022/01/22 05:04:33;;;;;;;27.90;12.87;;;;;;;;;;5016512;28;20520;-72
2022/01/22 05:07:01;;;;;;;18.13;8.60;;;;;;;;;;5015805;28;20482;-71
2022/01/22 05:09:28;;;;;;;22.20;11.83;;;;;;;;;;5015538;28;20466;-73
2022/01/22 05:11:56;;;;;;;23.13;10.10;;;;;;;;;;5015116;28;20589;-72
2022/01/22 05:14:24;;;;;;;25.23;11.23;;;;;;;;;;5015956;28;20495;-72
2022/01/22 05:16:54;;;;;;;25.60;10.97;;;;;;;;;;5015757;28;20466;-72
2022/01/22 05:19:33;;;;;;;25.50;11.77;;;;;;;;;;5015620;28;20470;-72
2022/01/22 05:22:10;;;;;;;24.50;10.50;;;;;;;;;;5015718;28;20459;-72
2022/01/22 05:24:41;;;;;;;25.63;10.80;;;;;;;;;;5016337;28;20491;-72
2022/01/22 05:27:31;;;;;;;29.40;10.73;;;;;;;;;;5016587;28;20454;-72
2022/01/22 05:30:09;;;;;;;22.73;9.47;;;;;;;;;;5015279;28;20762;-72
2022/01/22 05:32:54;;;;;;;28.40;11.53;;;;;;;;;;5016016;28;20455;-72
2022/01/22 05:38:08;;;;;;;25.67;11.73;;;;;;;;;;5017073;28;20449;-72
2022/01/22 05:40:36;;;;;;;29.30;11.60;;;;;;;;;;5019614;28;20521;-72
2022/01/22 05:43:04;;;;;;;18.90;9.30;;;;;;;;;;5019298;28;20446;-72
2022/01/22 05:45:32;;;;;;;24.23;9.67;;;;;;;;;;5019135;28;20447;-72
2022/01/22 05:48:00;;;;;;;31.10;11.20;;;;;;;;;;5019769;28;20455;-72
2022/01/22 05:50:49;;;;;;;26.53;9.33;;;;;;;;;;5019258;28;20928;-72
2022/01/22 05:53:33;;;;;;;25.00;11.73;;;;;;;;;;5019551;28;20813;-72
2022/01/22 06:01:31;;;;;;;21.97;10.10;;;;;;;;;;5018249;28;20438;-72
2022/01/22 06:04:00;;;;;;;31.77;10.47;;;;;;;;;;5018919;28;20458;-72
2022/01/22 06:06:28;;;;;;;25.13;9.20;;;;;;;;;;5019364;28;20525;-72
2022/01/22 06:09:01;;;;;;;28.13;10.17;;;;;;;;;;5019034;28;20478;-72
2022/01/22 06:11:29;;;;;;;25.33;10.73;;;;;;;;;;5020567;28;20470;-72
2022/01/22 06:13:57;;;;;;;31.50;10.93;;;;;;;;;;5019324;28;20490;-71
2022/01/22 06:16:25;;;;;;;29.33;10.63;;;;;;;;;;5019681;28;20522;-71
2022/01/22 06:18:53;;;;;;;24.73;9.80;;;;;;;;;;5018944;28;20455;-71
2022/01/22 06:21:23;;;;;;;26.80;10.97;;;;;;;;;;5018649;28;20466;-71
2022/01/22 06:23:50;;;;;;;26.77;8.80;;;;;;;;;;5018373;28;20459;-71
2022/01/22 06:26:22;;;;;;;19.73;9.17;;;;;;;;;;5018446;28;20452;-71
2022/01/22 06:28:50;;;;;;;21.67;8.97;;;;;;;;;;5017871;28;20470;-73
2022/01/22 06:31:18;;;;;;;24.57;11.17;;;;;;;;;;5017960;28;20488;-72
2022/01/22 06:33:46;;;;;;;17.37;9.03;;;;;;;;;;5018158;28;20459;-72
2022/01/22 06:36:14;;;;;;;22.13;9.73;;;;;;;;;;5016909;28;20518;-72
2022/01/22 06:38:41;;;;;;;24.27;10.40;;;;;;;;;;5016876;28;20467;-72
2022/01/22 06:43:55;;;;;;;26.13;11.43;;;;;;;;;;5017299;28;20702;-72
2022/01/22 06:46:23;;;;;;;20.97;10.60;;;;;;;;;;5016853;28;20483;-72
2022/01/22 06:48:50;;;;;;;27.17;10.10;;;;;;;;;;5017601;28;20467;-72
2022/01/22 06:51:22;;;;;;;20.67;9.77;;;;;;;;;;5017649;28;20525;-72
2022/01/22 06:53:50;;;;;;;27.40;9.50;;;;;;;;;;5015253;28;20444;-72
2022/01/22 06:56:20;;;;;;;25.47;10.20;;;;;;;;;;5016261;28;20483;-72
2022/01/22 06:58:48;;;;;;;26.83;9.63;;;;;;;;;;5017480;28;20458;-72
2022/01/22 07:01:17;;;;;;;21.10;10.20;;;;;;;;;;5017429;28;20522;-72
2022/01/22 07:03:45;;;;;;;24.03;9.50;;;;;;;;;;5017908;28;20717;-72
2022/01/22 07:06:12;;;;;;;24.77;10.50;;;;;;;;;;5017658;28;20792;-72
2022/01/22 07:08:40;;;;;;;26.53;9.77;;;;;;;;;;5016933;28;20451;-72
2022/01/22 07:11:08;;;;;;;32.53;11.00;;;;;;;;;;5017726;28;20479;-72
2022/01/22 07:13:35;;;;;;;25.10;10.17;;;;;;;;;;5002764;28;20451;-72
2022/01/22 07:16:06;;;;;;;26.33;10.17;;;;;;;;;;5017705;28;20487;-72
2022/01/22 07:18:36;;;;;;;23.67;10.03;;;;;;;;;;5017709;28;20447;-71
2022/01/22 07:21:13;;;;;;;25.43;10.00;;;;;;;;;;5017263;28;20517;-72
2022/01/22 07:24:22;;;;;;;23.17;9.70;;;;;;;;;;5016644;28;20871;-73
2022/01/22 07:26:45;;;;;;;25.03;10.53;;;;;;;;;;5017005;28;20785;-72
2022/01/22 07:29:12;;;;;;;21.73;8.23;;;;;;;;;;5015917;28;20574;-72
2022/01/22 07:31:40;;;;;;;15.77;9.07;;;;;;;;;;5016686;28;20459;-72
2022/01/22 07:34:09;;;;;;;16.20;9.73;;;;;;;;;;5016728;28;20451;-73
2022/01/22 07:36:36;;;;;;;18.33;7.80;;;;;;;;;;5003990;28;20552;-73
2022/01/22 07:39:04;;;;;;;18.43;7.80;;;;;;;;;;5016485;28;20844;-73
2022/01/22 07:41:32;;;;;;;13.53;6.63;;;;;;;;;;5016504;28;20472;-73
2022/01/22 07:43:59;;;;;;;17.23;8.20;;;;;;;;;;5012321;28;20448;-72
2022/01/22 07:46:27;;;;;;;19.30;7.80;;;;;;;;;;5012294;28;20447;-73
2022/01/22 07:48:55;;;;;;;23.60;8.20;;;;;;;;;;5016253;28;20447;-72
2022/01/22 07:51:24;;;;;;;14.60;7.17;;;;;;;;;;5016436;28;20720;-72
2022/01/22 07:53:51;;;;;;;21.70;7.60;;;;;;;;;;5015841;28;20895;-73
2022/01/22 07:56:19;;;;;;;15.97;7.97;;;;;;;;;;5016124;28;20536;-73
2022/01/22 07:58:47;;;;;;;18.20;9.20;;;;;;;;;;5015756;28;20467;-73
2022/01/22 08:01:15;;;;;;;15.50;7.90;;;;;;;;;;5016641;28;20892;-72
2022/01/22 08:03:43;;;;;;;12.97;6.17;;;;;;;;;;4997336;28;20687;-73
2022/01/22 08:06:10;;;;;;;19.97;9.17;;;;;;;;;;5000408;28;20447;-73
2022/01/22 08:08:39;;;;;;;16.67;7.50;;;;;;;;;;5016410;28;20463;-73
2022/01/22 08:11:10;;;;;;;18.10;8.77;;;;;;;;;;4996497;28;20460;-73
2022/01/22 08:13:37;;;;;;;22.10;10.10;;;;;;;;;;4996427;28;20523;-73
2022/01/22 08:16:05;;;;;;;20.87;9.40;;;;;;;;;;4996065;28;20666;-73
2022/01/22 08:18:33;;;;;;;20.40;8.67;;;;;;;;;;4998598;28;20529;-73
2022/01/22 08:21:01;;;;;;;16.40;7.80;;;;;;;;;;5016299;28;20466;-73
2022/01/22 08:23:29;;;;;;;18.17;9.53;;;;;;;;;;5014785;28;20525;-72
2022/01/22 08:26:05;;;;;;;19.03;8.20;;;;;;;;;;5015424;28;20467;-72
2022/01/22 08:31:25;;;;;;;15.20;7.50;;;;;;;;;;5014468;28;20704;-73
2022/01/22 08:36:39;;;;;;;14.23;6.80;;;;;;;;;;5016490;28;20478;-72
2022/01/22 08:39:07;;;;;;;13.60;6.40;;;;;;;;;;5015482;28;20459;-72
2022/01/22 08:41:37;;;;;;;18.30;7.50;;;;;;;;;;5016125;28;20941;-73
2022/01/22 08:44:05;;;;;;;12.33;6.27;;;;;;;;;;5015237;28;20439;-72
2022/01/22 08:46:34;;;;;;;18.70;7.40;;;;;;;;;;5015285;28;20953;-73
2022/01/22 08:49:03;;;;;;;12.97;6.87;;;;;;;;;;5015584;28;20877;-73
2022/01/22 08:51:32;;;;;;;12.23;6.27;;;;;;;;;;5015082;28;20447;-73
2022/01/22 08:54:00;;;;;;;11.30;6.27;;;;;;;;;;5016017;28;20447;-73
2022/01/22 08:56:28;;;;;;;14.70;6.63;;;;;;;;;;5015792;28;20491;-73
2022/01/22 08:58:57;;;;;;;10.20;5.20;;;;;;;;;;5014931;28;20451;-72
2022/01/22 09:01:25;;;;;;;14.20;6.50;;;;;;;;;;5015087;28;20463;-73
2022/01/22 09:04:04;;;;;;;13.33;7.77;;;;;;;;;;5015152;28;20752;-71
2022/01/22 09:06:32;;;;;;;13.43;4.97;;;;;;;;;;5005388;28;21106;-73
2022/01/22 09:09:08;;;;;;;10.30;5.60;;;;;;;;;;5015029;28;20750;-74
2022/01/22 09:11:38;;;;;;;10.30;5.23;;;;;;;;;;5014217;28;20520;-73
2022/01/22 09:14:13;;;;;;;12.10;6.73;;;;;;;;;;5014134;28;20460;-73
2022/01/22 09:16:41;;;;;;;9.73;5.80;;;;;;;;;;5017008;28;20897;-73
2022/01/22 09:19:10;;;;;;;12.50;5.67;;;;;;;;;;5016648;28;20477;-72
2022/01/22 09:21:39;;;;;;;11.00;6.10;;;;;;;;;;5017919;28;20466;-72
2022/01/22 09:24:07;;;;;;;15.47;5.60;;;;;;;;;;5017616;28;20514;-73
2022/01/22 09:26:36;;;;;;;16.50;6.20;;;;;;;;;;5030016;28;20456;-72
2022/01/22 09:29:06;;;;;;;13.03;6.87;;;;;;;;;;5038812;28;20550;-73
2022/01/22 09:31:35;;;;;;;10.63;5.30;;;;;;;;;;5038085;28;20458;-73
2022/01/22 09:34:03;;;;;;;10.07;5.43;;;;;;;;;;5029949;28;20478;-72
2022/01/22 09:36:34;;;;;;;13.77;6.40;;;;;;;;;;5017562;28;20497;-74
2022/01/22 09:39:01;;;;;;;10.00;4.63;;;;;;;;;;5012935;28;20492;-72
2022/01/22 09:41:29;;;;;;;11.60;6.87;;;;;;;;;;5017807;28;20451;-73
2022/01/22 09:44:00;;;;;;;10.70;5.33;;;;;;;;;;5009032;28;20443;-73
2022/01/22 09:46:28;;;;;;;9.23;4.90;;;;;;;;;;5018197;28;20447;-73
2022/01/22 09:49:02;;;;;;;11.27;6.97;;;;;;;;;;5009698;28;20532;-72
2022/01/22 09:51:30;;;;;;;12.93;4.93;;;;;;;;;;4999737;28;20460;-73
2022/01/22 09:53:58;;;;;;;10.50;5.97;;;;;;;;;;5017830;28;20521;-73
2022/01/22 09:56:27;;;;;;;10.97;5.53;;;;;;;;;;5017237;28;20773;-73
2022/01/22 09:58:55;;;;;;;11.57;5.70;;;;;;;;;;5016723;28;20451;-73
2022/01/22 10:01:25;;;;;;;16.20;6.67;;;;;;;;;;5017700;28;20763;-72
2022/01/22 10:03:55;;;;;;;9.27;5.43;;;;;;;;;;5009136;28;20532;-73
2022/01/22 10:06:25;;;;;;;12.60;7.50;;;;;;;;;;5017657;28;20451;-72
2022/01/22 10:08:56;;;;;;;8.23;5.17;;;;;;;;;;5017205;28;20456;-72
2022/01/22 10:11:25;;;;;;;12.43;6.50;;;;;;;;;;5016815;28;20521;-73
2022/01/22 10:13:54;;;;;;;13.00;7.27;;;;;;;;;;5017402;28;20462;-73
2022/01/22 10:16:36;;;;;;;11.60;5.33;;;;;;;;;;5017219;28;20764;-73
2022/01/22 10:19:11;;;;;;;15.20;7.17;;;;;;;;;;5031503;28;20455;-73
2022/01/22 10:21:41;;;;;;;12.30;5.83;;;;;;;;;;5014370;28;20464;-73
2022/01/22 10:24:31;;;;;;;8.37;6.63;;;;;;;;;;5012350;28;20468;-72
2022/01/22 10:27:23;;;;;;;11.40;6.67;;;;;;;;;;4999611;28;20515;-72
2022/01/22 10:29:53;;;;;;;11.30;6.37;;;;;;;;;;5016952;28;20466;-72
2022/01/22 10:32:23;;;;;;;13.00;7.17;;;;;;;;;;5016703;28;20529;-72
2022/01/22 10:34:51;;;;;;;7.90;4.77;;;;;;;;;;5016127;28;20538;-72
2022/01/22 10:37:35;;;;;;;17.63;8.40;;;;;;;;;;5016372;28;20558;-73
2022/01/22 10:40:23;;;;;;;17.90;6.93;;;;;;;;;;5016830;28;20463;-72
2022/01/22 10:42:51;;;;;;;9.00;4.83;;;;;;;;;;5017032;28;20455;-73
2022/01/22 10:45:29;;;;;;;9.93;6.40;;;;;;;;;;5017227;28;20474;-73
2022/01/22 10:48:16;;;;;;;12.73;5.83;;;;;;;;;;5016231;28;20447;-72
2022/01/22 10:50:46;;;;;;;11.57;6.80;;;;;;;;;;5016468;28;20529;-73
2022/01/22 10:53:16;;;;;;;12.80;7.13;;;;;;;;;;5015505;28;20491;-73
2022/01/22 10:55:58;;;;;;;17.43;8.07;;;;;;;;;;4997350;28;20471;-72
2022/01/22 10:58:32;;;;;;;14.37;7.30;;;;;;;;;;4984778;28;20458;-72
2022/01/22 11:01:01;;;;;;;10.67;6.10;;;;;;;;;;5006339;28;20463;-72
2022/01/22 11:03:29;;;;;;;15.93;8.40;;;;;;;;;;5014730;28;20455;-71
2022/01/22 11:06:05;;;;;;;19.33;7.87;;;;;;;;;;4997027;28;20460;-71
2022/01/22 11:08:35;;;;;;;14.93;7.80;;;;;;;;;;5003314;28;20447;-72
2022/01/22 11:11:03;;;;;;;12.30;6.87;;;;;;;;;;5010620;28;21167;-71
2022/01/22 11:13:31;;;;;;;14.10;6.80;;;;;;;;;;5003475;28;20451;-72
2022/01/22 11:15:59;;;;;;;14.67;9.57;;;;;;;;;;5016628;28;20806;-72
2022/01/22 11:18:28;;;;;;;12.80;7.80;;;;;;;;;;5008695;28;20877;-71
2022/01/22 11:20:56;;;;;;;12.30;7.60;;;;;;;;;;4996169;28;20460;-71
2022/01/22 11:23:24;;;;;;;10.20;6.57;;;;;;;;;;4998101;28;20466;-71
2022/01/22 11:25:58;;;;;;;17.77;9.67;;;;;;;;;;5016115;28;20745;-71
2022/01/22 11:28:28;;;;;;;16.53;9.60;;;;;;;;;;5000739;28;20458;-72
2022/01/22 11:30:58;;;;;;;15.53;7.03;;;;;;;;;;5012833;28;20467;-71
2022/01/22 11:33:29;;;;;;;12.63;7.23;;;;;;;;;;5013546;28;20478;-71
2022/01/22 11:36:00;;;;;;;11.90;7.20;;;;;;;;;;5012118;28;20469;-71
2022/01/22 11:38:30;;;;;;;14.87;8.47;;;;;;;;;;5013705;28;20844;-71
2022/01/22 11:41:07;;;;;;;16.63;10.43;;;;;;;;;;5013578;28;20464;-71
2022/01/22 11:44:02;;;;;;;13.20;6.60;;;;;;;;;;5014558;28;20478;-71
2022/01/22 11:49:21;;;;;;;17.50;6.80;;;;;;;;;;5016119;28;20458;-71
2022/01/22 11:51:51;;;;;;;11.20;6.63;;;;;;;;;;5034058;28;20862;-71
2022/01/22 11:54:29;;;;;;;9.70;6.30;;;;;;;;;;5014689;28;20458;-71
2022/01/22 11:57:04;;;;;;;10.67;6.63;;;;;;;;;;5010616;28;20986;-71
2022/01/22 11:59:34;;;;;;;17.27;7.87;;;;;;;;;;5012131;28;20463;-71
2022/01/22 12:02:04;;;;;;;16.27;8.17;;;;;;;;;;5013673;28;20455;-71
2022/01/22 12:04:58;;;;;;;11.70;6.37;;;;;;;;;;5013747;28;20818;-72
2022/01/22 12:08:04;;;;;;;15.00;7.47;;;;;;;;;;5000565;28;20453;-72
2022/01/22 12:10:43;;;;;;;9.30;6.50;;;;;;;;;;5011299;28;20448;-72
2022/01/22 12:16:15;;;;;;;10.40;6.90;;;;;;;;;;5015896;28;20938;-72
2022/01/22 12:18:50;;;;;;;10.80;7.10;;;;;;;;;;5017481;28;20473;-73
2022/01/22 12:21:47;;;;;;;8.83;6.17;;;;;;;;;;5017328;28;20909;-71
2022/01/22 12:24:43;;;;;;;12.60;7.03;;;;;;;;;;4932812;29;20445;-74
2022/01/22 12:27:51;;;;;;;11.70;5.20;;;;;;;;;;5009025;28;20510;-74
2022/01/22 12:30:45;;;;;;;13.03;7.43;;;;;;;;;;5008183;28;21063;-72
2022/01/22 12:33:43;;;;;;;7.50;6.00;;;;;;;;;;5005378;28;20716;-72
2022/01/22 12:36:18;;;;;;;10.83;6.93;;;;;;;;;;5011389;28;20459;-73
2022/01/22 12:38:50;;;;;;;7.60;5.30;;;;;;;;;;5014652;28;20505;-72
2022/01/22 12:44:13;;;;;;;11.43;6.90;;;;;;;;;;5015685;28;20440;-73
2022/01/22 12:46:46;;;;;;;7.30;4.43;;;;;;;;;;5015047;28;20443;-72
2022/01/22 12:49:28;;;;;;;9.20;6.63;;;;;;;;;;5011191;28;20478;-73
2022/01/22 12:52:27;;;;;;;5.63;4.47;;;;;;;;;;5011414;28;20561;-73
2022/01/22 12:55:04;;;;;;;6.37;4.50;;;;;;;;;;5013507;28;20781;-73
2022/01/22 12:57:34;;;;;;;6.73;4.03;;;;;;;;;;5013412;28;20581;-73
2022/01/22 13:00:09;;;;;;;8.30;4.77;;;;;;;;;;5014201;28;20455;-72
2022/01/22 13:02:41;;;;;;;4.03;3.07;;;;;;;;;;5015700;28;20466;-73
2022/01/22 13:05:11;;;;;;;6.30;4.67;;;;;;;;;;5015493;28;20459;-72
2022/01/22 13:07:40;;;;;;;3.57;3.13;;;;;;;;;;5014822;28;20525;-72
2022/01/22 13:10:09;;;;;;;6.50;4.70;;;;;;;;;;5014718;28;20513;-72
2022/01/22 13:12:49;;;;;;;6.00;3.93;;;;;;;;;;5014587;28;20713;-72
2022/01/22 13:15:17;;;;;;;8.33;5.03;;;;;;;;;;5003440;28;20453;-71
2022/01/22 13:17:52;;;;;;;7.87;4.77;;;;;;;;;;5013994;28;20495;-72
2022/01/22 13:20:23;;;;;;;5.03;4.30;;;;;;;;;;5014808;28;20478;-73
2022/01/22 13:23:17;;;;;;;5.03;3.00;;;;;;;;;;5017565;28;20597;-72
2022/01/22 13:28:59;;;;;;;5.93;4.27;;;;;;;;;;5016365;28;20438;-72
2022/01/22 13:31:31;;;;;;;4.90;3.57;;;;;;;;;;5014412;28;20834;-72
2022/01/22 13:34:15;;;;;;;6.47;4.53;;;;;;;;;;5009031;28;20459;-72
2022/01/22 13:37:33;;;;;;;4.17;2.80;;;;;;;;;;5020565;28;20491;-72
2022/01/22 13:48:30;;;;;;;5.60;3.37;;;;;;;;;;5014093;28;20731;-72
2022/01/22 13:51:00;;;;;;;6.40;4.33;;;;;;;;;;5013849;28;20552;-73
2022/01/22 13:56:48;;;;;;;4.10;3.00;;;;;;;;;;5015320;28;20475;-72
2022/01/22 13:59:27;;;;;;;3.03;2.30;;;;;;;;;;5020009;28;20933;-73
2022/01/22 14:05:14;;;;;;;;;;;;;;;;;;;;;
2022/01/22 14:07:50;;;;;;;6.70;3.90;;;;;;;;;;5000168;28;20898;-72
2022/01/22 14:12:55;;;;;;;3.97;2.97;;;;;;;;;;5013788;28;20521;-72
2022/01/22 14:15:34;;;;;;;4.97;2.80;;;;;;;;;;5016873;28;20550;-72
2022/01/22 14:18:13;;;;;;;7.67;2.77;;;;;;;;;;5016851;28;20478;-72
2022/01/22 14:20:42;;;;;;;5.43;4.20;;;;;;;;;;5021537;28;20903;-72
2022/01/22 14:23:17;;;;;;;4.10;3.47;;;;;;;;;;5012227;28;20454;-73
2022/01/22 14:29:04;;;;;;;4.37;3.10;;;;;;;;;;5007656;28;20459;-73
2022/01/22 14:31:38;;;;;;;7.03;3.83;;;;;;;;;;5012706;28;20478;-72
2022/01/22 14:34:08;;;;;;;3.67;2.73;;;;;;;;;;5014460;28;20902;-73
2022/01/22 14:36:39;;;;;;;8.30;3.17;;;;;;;;;;5014237;28;20474;-73
2022/01/22 14:39:14;;;;;;;4.50;3.70;;;;;;;;;;5012852;28;20451;-72
2022/01/22 14:44:42;;;;;;;3.80;3.10;;;;;;;;;;5012063;28;20438;-72
2022/01/22 14:47:19;;;;;;;5.33;3.83;;;;;;;;;;5013024;28;20455;-73
2022/01/22 14:49:54;;;;;;;4.53;3.27;;;;;;;;;;5015353;28;20762;-72
2022/01/22 14:52:37;;;;;;;5.43;4.10;;;;;;;;;;5013129;28;20561;-73
2022/01/22 14:55:10;;;;;;;4.43;3.67;;;;;;;;;;5013748;28;20459;-73
2022/01/22 14:57:42;;;;;;;7.63;3.40;;;;;;;;;;5015367;28;20482;-73
2022/01/22 15:00:15;;;;;;;5.43;4.10;;;;;;;;;;5013677;28;20452;-72
2022/01/22 15:02:45;;;;;;;3.30;2.67;;;;;;;;;;5015747;28;20868;-72
2022/01/22 15:05:15;;;;;;;4.33;3.93;;;;;;;;;;5011753;28;20461;-71
2022/01/22 15:07:44;;;;;;;4.87;3.47;;;;;;;;;;5014631;28;20491;-71
2022/01/22 15:10:12;;;;;;;3.60;2.60;;;;;;;;;;5015442;28;20587;-72
2022/01/22 15:12:40;;;;;;;2.97;2.10;;;;;;;;;;5015886;28;20455;-72
2022/01/22 15:15:13;;;;;;;4.40;2.60;;;;;;;;;;5013101;28;20820;-72
2022/01/22 15:17:53;;;;;;;3.50;2.47;;;;;;;;;;5012742;28;20501;-71
2022/01/22 15:20:24;;;;;;;3.80;3.23;;;;;;;;;;5015417;28;20459;-71
2022/01/22 15:23:00;;;;;;;3.37;2.20;;;;;;;;;;5016264;28;20553;-71
2022/01/22 15:25:50;;;;;;;;;;;;;;;;;;;;;
2022/01/22 15:28:32;;;;;;;4.10;2.47;;;;;;;;;;5005591;28;20455;-71
2022/01/22 15:31:15;;;;;;;4.30;2.20;;;;;;;;;;5010693;28;20470;-70
2022/01/22 15:34:05;;;;;;;7.50;2.27;;;;;;;;;;4998844;28;20468;-70
2022/01/22 15:36:34;;;;;;;7.67;1.37;;;;;;;;;;5002464;28;20754;-70
2022/01/22 15:39:09;;;;;;;6.93;3.00;;;;;;;;;;5015919;28;20811;-70
2022/01/22 15:41:38;;;;;;;4.23;2.70;;;;;;;;;;5002105;28;20455;-70
2022/01/22 15:44:09;;;;;;;4.00;2.63;;;;;;;;;;5003053;28;20777;-71
2022/01/22 15:46:42;;;;;;;4.63;2.63;;;;;;;;;;5013325;28;20469;-71
2022/01/22 15:49:15;;;;;;;3.57;2.00;;;;;;;;;;5013541;28;20722;-71
2022/01/22 15:51:52;;;;;;;2.43;2.03;;;;;;;;;;5015990;28;20470;-70
2022/01/22 15:54:20;;;;;;;3.93;2.33;;;;;;;;;;5006700;28;20753;-70
2022/01/22 15:56:54;;;;;;;3.53;2.43;;;;;;;;;;4998122;28;20521;-70
2022/01/22 15:59:34;;;;;;;3.80;2.77;;;;;;;;;;5012057;28;20453;-70
2022/01/22 16:02:05;;;;;;;3.73;2.77;;;;;;;;;;5003028;28;20891;-70
2022/01/22 16:04:49;;;;;;;6.27;4.10;;;;;;;;;;5007448;28;20448;-71
2022/01/22 16:07:26;;;;;;;6.30;3.70;;;;;;;;;;4995831;28;20477;-70
2022/01/22 16:10:07;;;;;;;4.83;2.17;;;;;;;;;;4994900;28;20803;-70
2022/01/22 16:12:48;;;;;;;3.93;2.97;;;;;;;;;;4994958;28;20460;-70
2022/01/22 16:15:16;;;;;;;4.73;2.00;;;;;;;;;;4995314;28;20466;-70
2022/01/22 16:17:45;;;;;;;4.50;3.20;;;;;;;;;;4994304;28;20480;-70
2022/01/22 16:20:18;;;;;;;2.43;1.83;;;;;;;;;;4994663;28;20884;-70
2022/01/22 16:22:48;;;;;;;2.93;1.97;;;;;;;;;;4995506;28;20466;-70
2022/01/22 16:25:20;;;;;;;4.00;2.93;;;;;;;;;;4994346;28;20901;-70
2022/01/22 16:27:59;;;;;;;5.13;3.40;;;;;;;;;;4995171;28;20487;-70
2022/01/22 16:30:35;;;;;;;6.83;4.60;;;;;;;;;;4995378;28;20883;-70
2022/01/22 16:33:04;;;;;;;2.87;2.17;;;;;;;;;;4997027;28;20460;-70
2022/01/22 16:35:33;;;;;;;3.43;1.97;;;;;;;;;;4995358;28;20459;-70
2022/01/22 16:38:02;;;;;;;6.57;2.80;;;;;;;;;;4999060;28;20541;-70
2022/01/22 16:40:33;;;;;;;7.70;4.00;;;;;;;;;;5015294;28;20447;-70
2022/01/22 16:43:05;;;;;;;2.90;1.83;;;;;;;;;;5008067;28;20456;-71
2022/01/22 16:45:56;;;;;;;3.60;2.80;;;;;;;;;;5014675;28;20826;-70
2022/01/22 16:51:28;;;;;;;4.10;3.67;;;;;;;;;;5014590;28;20802;-70